Climatologie pour Saint-Brevin les Pins
Jour • Résumé pour avril 7, 2017 Système :  Métrique    Anglais   Mixte
« - 1 jour
+ 1 jour »
Jour Semaine Mois Année Personnalisé
  Maximum : Minimum : Moyenne :
Température sous abri : 19.2 °C 3.8 °C 11.9 °C
Point de rosée : 9.7 °C 3.1 °C 7.2 °C
Humidité : 96 % 50 % 75 %
Vitesse du vent : 20.9 km/h 0.0 km/h 5.4 km/h
Rafale : 30.6 km/h - -
Direction :- - ENE
Pression : 1027.7 hPa 1022.6 hPa -
Précipitations : 0.0 mm    
Historical Graphs
 
 
Tableau de données pour avril 7, 2017
Heure Tempé Pt rosée Pression Vent Vitesse Rafale Humidité Taux pluie (/hr) Soleil
00:00 9.7 °C 7.1 °C 1027.7 hPa NNE 4.8 km/h 12.9 km/h 84 % 0.0 mm 0 W/m2
00:05 9.7 °C 7.3 °C 1027.7 hPa NE 8.0 km/h 11.3 km/h 85 % 0.0 mm 0 W/m2
00:10 9.7 °C 7.3 °C 1027.7 hPa NNE 6.4 km/h 12.9 km/h 85 % 0.0 mm 0 W/m2
00:15 9.7 °C 7.3 °C 1027.7 hPa NNE 3.2 km/h 12.9 km/h 85 % 0.0 mm 0 W/m2
00:20 9.5 °C 7.1 °C 1027.7 hPa NE 6.4 km/h 11.3 km/h 85 % 0.0 mm 0 W/m2
00:25 9.4 °C 7.2 °C 1027.7 hPa NNE 6.4 km/h 11.3 km/h 86 % 0.0 mm 0 W/m2
00:30 9.3 °C 7.1 °C 1027.7 hPa North 1.6 km/h 11.3 km/h 86 % 0.0 mm 0 W/m2
00:35 9.2 °C 7.0 °C 1027.3 hPa NE 3.2 km/h 9.7 km/h 86 % 0.0 mm 0 W/m2
00:40 9.2 °C 7.1 °C 1027.3 hPa NNE 3.2 km/h 11.3 km/h 87 % 0.0 mm 0 W/m2
00:45 9.1 °C 7.0 °C 1027.3 hPa NNE 3.2 km/h 11.3 km/h 87 % 0.0 mm 0 W/m2
00:50 8.9 °C 6.8 °C 1027.3 hPa NE 11.3 km/h 11.3 km/h 87 % 0.0 mm 0 W/m2
00:55 8.7 °C 6.8 °C 1027.3 hPa Calm   11.3 km/h 88 % 0.0 mm 0 W/m2
01:00 8.7 °C 6.8 °C 1027.3 hPa NE 3.2 km/h 11.3 km/h 88 % 0.0 mm 0 W/m2
01:05 8.7 °C 6.8 °C 1027.3 hPa NNE 8.0 km/h 14.5 km/h 88 % 0.0 mm 0 W/m2
01:10 8.8 °C 6.9 °C 1027.3 hPa North 3.2 km/h 14.5 km/h 88 % 0.0 mm 0 W/m2
01:15 8.8 °C 6.8 °C 1027.3 hPa NNE 6.4 km/h 12.9 km/h 87 % 0.0 mm 0 W/m2
01:20 8.8 °C 6.7 °C 1027.3 hPa ENE 8.0 km/h 12.9 km/h 87 % 0.0 mm 0 W/m2
01:25 8.7 °C 6.6 °C 1027.3 hPa ENE 3.2 km/h 12.9 km/h 87 % 0.0 mm 0 W/m2
01:30 8.6 °C 6.7 °C 1027.3 hPa North 1.6 km/h 9.7 km/h 88 % 0.0 mm 0 W/m2
01:35 8.6 °C 6.7 °C 1027.3 hPa Calm   8.0 km/h 88 % 0.0 mm 0 W/m2
01:40 8.3 °C 6.5 °C 1027.3 hPa NE 3.2 km/h 8.0 km/h 88 % 0.0 mm 0 W/m2
01:45 8.2 °C 6.4 °C 1027.3 hPa ENE 4.8 km/h 8.0 km/h 88 % 0.0 mm 0 W/m2
01:50 8.2 °C 6.5 °C 1027.3 hPa NNE 6.4 km/h 11.3 km/h 89 % 0.0 mm 0 W/m2
01:55 8.1 °C 6.2 °C 1027.3 hPa NNE 3.2 km/h 11.3 km/h 88 % 0.0 mm 0 W/m2
02:00 7.9 °C 6.2 °C 1027.3 hPa NE 8.0 km/h 11.3 km/h 89 % 0.0 mm 0 W/m2
02:05 7.9 °C 6.2 °C 1027.0 hPa ENE 1.6 km/h 12.9 km/h 89 % 0.0 mm 0 W/m2
02:10 7.9 °C 6.4 °C 1027.0 hPa ENE 3.2 km/h 12.9 km/h 90 % 0.0 mm 0 W/m2
02:15 7.8 °C 6.3 °C 1027.0 hPa ENE 3.2 km/h 8.0 km/h 90 % 0.0 mm 0 W/m2
02:20 7.8 °C 6.2 °C 1027.0 hPa NE 4.8 km/h 8.0 km/h 90 % 0.0 mm 0 W/m2
02:25 7.7 °C 6.2 °C 1027.0 hPa NE 4.8 km/h 6.4 km/h 90 % 0.0 mm 0 W/m2
02:30 7.7 °C 6.1 °C 1027.0 hPa Calm   8.0 km/h 90 % 0.0 mm 0 W/m2
02:40 7.5 °C 6.0 °C 1027.0 hPa Calm   6.4 km/h 90 % 0.0 mm 0 W/m2
02:45 7.3 °C 6.0 °C 1027.0 hPa Calm   4.8 km/h 91 % 0.0 mm 0 W/m2
02:50 7.3 °C 5.9 °C 1027.0 hPa NE 1.6 km/h 8.0 km/h 91 % 0.0 mm 0 W/m2
02:55 7.3 °C 6.0 °C 1026.6 hPa ENE 3.2 km/h 8.0 km/h 91 % 0.0 mm 0 W/m2
03:00 7.4 °C 6.0 °C 1026.6 hPa Calm   8.0 km/h 91 % 0.0 mm 0 W/m2
03:05 7.3 °C 5.9 °C 1026.6 hPa Calm   8.0 km/h 91 % 0.0 mm 0 W/m2
03:10 7.3 °C 6.0 °C 1026.6 hPa Calm   8.0 km/h 91 % 0.0 mm 0 W/m2
03:15 7.3 °C 6.0 °C 1026.6 hPa ENE 3.2 km/h 8.0 km/h 91 % 0.0 mm 0 W/m2
03:20 7.2 °C 5.7 °C 1026.6 hPa Calm   6.4 km/h 90 % 0.0 mm 0 W/m2
03:25 7.0 °C 5.6 °C 1026.6 hPa ENE 4.8 km/h 6.4 km/h 91 % 0.0 mm 0 W/m2
03:30 6.9 °C 5.5 °C 1026.6 hPa ENE 1.6 km/h 6.4 km/h 91 % 0.0 mm 0 W/m2
03:35 6.7 °C 5.3 °C 1026.6 hPa ENE 1.6 km/h 4.8 km/h 91 % 0.0 mm 0 W/m2
03:40 6.8 °C 5.6 °C 1026.6 hPa East 4.8 km/h 6.4 km/h 92 % 0.0 mm 0 W/m2
03:45 6.7 °C 5.5 °C 1026.6 hPa East 3.2 km/h 6.4 km/h 92 % 0.0 mm 0 W/m2
03:50 6.7 °C 5.5 °C 1026.6 hPa ENE 3.2 km/h 8.0 km/h 92 % 0.0 mm 0 W/m2
03:55 6.7 °C 5.5 °C 1026.6 hPa ENE 1.6 km/h 8.0 km/h 92 % 0.0 mm 0 W/m2
04:00 6.8 °C 5.6 °C 1026.6 hPa ENE 1.6 km/h 6.4 km/h 92 % 0.0 mm 0 W/m2
04:05 6.7 °C 5.5 °C 1026.6 hPa Calm   6.4 km/h 92 % 0.0 mm 0 W/m2
04:10 6.4 °C 5.2 °C 1026.6 hPa Calm   6.4 km/h 92 % 0.0 mm 0 W/m2
04:15 6.3 °C 5.1 °C 1026.3 hPa Calm   6.4 km/h 92 % 0.0 mm 0 W/m2
04:20 6.2 °C 5.0 °C 1026.3 hPa Calm   6.4 km/h 92 % 0.0 mm 0 W/m2
04:25 6.0 °C 5.0 °C 1026.3 hPa Calm   6.4 km/h 93 % 0.0 mm 0 W/m2
04:30 5.9 °C 4.8 °C 1026.3 hPa Calm   6.4 km/h 93 % 0.0 mm 0 W/m2
04:35 5.8 °C 4.8 °C 1026.3 hPa Calm   4.8 km/h 93 % 0.0 mm 0 W/m2
04:40 5.7 °C 4.7 °C 1026.3 hPa Calm   4.8 km/h 93 % 0.0 mm 0 W/m2
04:45 5.6 °C 4.5 °C 1026.3 hPa Calm   4.8 km/h 93 % 0.0 mm 0 W/m2
04:50 5.7 °C 4.8 °C 1026.3 hPa ENE 1.6 km/h 6.4 km/h 94 % 0.0 mm 0 W/m2
04:55 5.6 °C 4.7 °C 1026.3 hPa Calm   6.4 km/h 94 % 0.0 mm 0 W/m2
05:00 5.4 °C 4.6 °C 1026.3 hPa Calm   4.8 km/h 94 % 0.0 mm 0 W/m2
05:05 5.3 °C 4.4 °C 1026.3 hPa Calm   3.2 km/h 94 % 0.0 mm 0 W/m2
05:10 5.2 °C 4.3 °C 1026.3 hPa Calm   6.4 km/h 94 % 0.0 mm 0 W/m2
05:15 5.1 °C 4.2 °C 1026.3 hPa NE 1.6 km/h 6.4 km/h 94 % 0.0 mm 0 W/m2
05:20 5.1 °C 4.2 °C 1026.3 hPa Calm   3.2 km/h 94 % 0.0 mm 0 W/m2
05:25 5.1 °C 4.2 °C 1026.3 hPa Calm   4.8 km/h 94 % 0.0 mm 0 W/m2
05:30 5.2 °C 4.4 °C 1026.3 hPa Calm   4.8 km/h 95 % 0.0 mm 0 W/m2
05:35 4.9 °C 4.0 °C 1026.3 hPa Calm   4.8 km/h 94 % 0.0 mm 0 W/m2
05:40 4.8 °C 3.9 °C 1026.3 hPa Calm   4.8 km/h 94 % 0.0 mm 0 W/m2
05:45 4.6 °C 3.7 °C 1026.3 hPa Calm   3.2 km/h 94 % 0.0 mm 0 W/m2
05:50 4.6 °C 3.8 °C 1026.3 hPa ENE 1.6 km/h 4.8 km/h 95 % 0.0 mm 0 W/m2
05:55 4.6 °C 3.8 °C 1026.3 hPa Calm   4.8 km/h 95 % 0.0 mm 0 W/m2
06:00 4.5 °C 3.8 °C 1026.3 hPa Calm   3.2 km/h 95 % 0.0 mm 0 W/m2
06:05 4.5 °C 3.8 °C 1026.3 hPa Calm   1.6 km/h 95 % 0.0 mm 0 W/m2
06:10 4.4 °C 3.7 °C 1026.0 hPa Calm   1.6 km/h 95 % 0.0 mm 0 W/m2
06:15 4.5 °C 3.8 °C 1026.0 hPa ENE 3.2 km/h 3.2 km/h 95 % 0.0 mm 0 W/m2
06:20 4.5 °C 3.8 °C 1026.0 hPa ENE 3.2 km/h 3.2 km/h 95 % 0.0 mm 0 W/m2
06:25 4.4 °C 3.7 °C 1026.0 hPa Calm   3.2 km/h 95 % 0.0 mm 0 W/m2
06:30 4.6 °C 3.8 °C 1026.0 hPa ENE 3.2 km/h 3.2 km/h 95 % 0.0 mm 0 W/m2
06:35 4.6 °C 3.9 °C 1026.0 hPa ENE 1.6 km/h 4.8 km/h 95 % 0.0 mm 0 W/m2
06:40 4.5 °C 3.8 °C 1026.0 hPa Calm   4.8 km/h 95 % 0.0 mm 0 W/m2
06:45 4.7 °C 4.0 °C 1026.0 hPa Calm   3.2 km/h 95 % 0.0 mm 0 W/m2
06:50 4.4 °C 3.7 °C 1026.0 hPa Calm   3.2 km/h 95 % 0.0 mm 0 W/m2
06:55 4.2 °C 3.5 °C 1026.0 hPa Calm   1.6 km/h 95 % 0.0 mm 0 W/m2
07:00 4.1 °C 3.4 °C 1026.0 hPa Calm   3.2 km/h 95 % 0.0 mm 0 W/m2
07:05 4.0 °C 3.3 °C 1026.0 hPa Calm   3.2 km/h 95 % 0.0 mm 0 W/m2
07:10 3.8 °C 3.1 °C 1026.0 hPa ENE 4.8 km/h 4.8 km/h 95 % 0.0 mm 0 W/m2
07:15 4.0 °C 3.4 °C 1026.0 hPa ENE 1.6 km/h 4.8 km/h 96 % 0.0 mm 0 W/m2
07:20 4.2 °C 3.6 °C 1026.0 hPa East 3.2 km/h 4.8 km/h 96 % 0.0 mm 0 W/m2
07:25 4.3 °C 3.7 °C 1026.0 hPa East 3.2 km/h 4.8 km/h 96 % 0.0 mm 0 W/m2
07:30 4.4 °C 3.9 °C 1026.0 hPa Calm   6.4 km/h 96 % 0.0 mm 0 W/m2
07:35 4.5 °C 3.9 °C 1026.0 hPa ENE 3.2 km/h 6.4 km/h 96 % 0.0 mm 0 W/m2
07:40 4.4 °C 3.7 °C 1026.0 hPa ENE 3.2 km/h 4.8 km/h 95 % 0.0 mm 5 W/m2
07:45 4.5 °C 3.8 °C 1026.0 hPa ENE 4.8 km/h 4.8 km/h 95 % 0.0 mm 7 W/m2
07:50 4.7 °C 4.1 °C 1026.0 hPa East 3.2 km/h 8.0 km/h 96 % 0.0 mm 11 W/m2
07:55 4.8 °C 4.0 °C 1026.0 hPa East 3.2 km/h 8.0 km/h 95 % 0.0 mm 14 W/m2
08:00 4.8 °C 4.0 °C 1026.0 hPa East 3.2 km/h 8.0 km/h 95 % 0.0 mm 18 W/m2
08:05 4.8 °C 4.1 °C 1026.0 hPa ENE 4.8 km/h 8.0 km/h 95 % 0.0 mm 21 W/m2
08:10 4.9 °C 4.2 °C 1026.3 hPa ENE 3.2 km/h 8.0 km/h 95 % 0.0 mm 25 W/m2
08:15 5.1 °C 4.4 °C 1026.3 hPa East 3.2 km/h 6.4 km/h 95 % 0.0 mm 28 W/m2
08:20 5.2 °C 4.4 °C 1026.3 hPa East 3.2 km/h 6.4 km/h 95 % 0.0 mm 30 W/m2
08:25 5.1 °C 4.2 °C 1026.3 hPa ENE 1.6 km/h 6.4 km/h 94 % 0.0 mm 35 W/m2
08:30 5.0 °C 4.3 °C 1026.3 hPa ENE 4.8 km/h 8.0 km/h 95 % 0.0 mm 39 W/m2
08:35 5.3 °C 4.5 °C 1026.3 hPa ENE 3.2 km/h 8.0 km/h 95 % 0.0 mm 98 W/m2
08:40 5.5 °C 4.8 °C 1026.3 hPa Calm   8.0 km/h 95 % 0.0 mm 114 W/m2
08:45 5.7 °C 5.0 °C 1026.3 hPa Calm   8.0 km/h 95 % 0.0 mm 130 W/m2
08:50 5.9 °C 5.2 °C 1026.3 hPa ENE 6.4 km/h 8.0 km/h 95 % 0.0 mm 146 W/m2
08:55 6.3 °C 5.5 °C 1026.3 hPa ENE 1.6 km/h 8.0 km/h 95 % 0.0 mm 162 W/m2
09:00 6.6 °C 5.7 °C 1026.3 hPa ENE 1.6 km/h 8.0 km/h 94 % 0.0 mm 176 W/m2
09:05 6.8 °C 5.8 °C 1026.3 hPa ENE 1.6 km/h 8.0 km/h 93 % 0.0 mm 197 W/m2
09:10 7.1 °C 6.0 °C 1026.3 hPa East 4.8 km/h 8.0 km/h 93 % 0.0 mm 214 W/m2
09:15 7.3 °C 6.1 °C 1026.3 hPa East 6.4 km/h 8.0 km/h 92 % 0.0 mm 232 W/m2
09:20 7.7 °C 6.3 °C 1026.3 hPa NE 3.2 km/h 11.3 km/h 91 % 0.0 mm 250 W/m2
09:25 7.9 °C 6.4 °C 1026.3 hPa NNE 3.2 km/h 11.3 km/h 90 % 0.0 mm 267 W/m2
09:30 8.2 °C 6.5 °C 1026.3 hPa East 3.2 km/h 11.3 km/h 89 % 0.0 mm 279 W/m2
09:35 8.6 °C 6.7 °C 1026.3 hPa ENE 6.4 km/h 9.7 km/h 88 % 0.0 mm 295 W/m2
09:40 8.9 °C 6.9 °C 1026.3 hPa ENE 12.9 km/h 12.9 km/h 87 % 0.0 mm 309 W/m2
09:45 9.2 °C 6.8 °C 1026.3 hPa NE 3.2 km/h 12.9 km/h 85 % 0.0 mm 323 W/m2
09:50 9.4 °C 6.7 °C 1026.3 hPa ENE 4.8 km/h 12.9 km/h 83 % 0.0 mm 338 W/m2
09:55 9.6 °C 6.7 °C 1026.3 hPa ENE 8.0 km/h 14.5 km/h 82 % 0.0 mm 355 W/m2
10:00 10.1 °C 7.2 °C 1026.3 hPa ENE 3.2 km/h 14.5 km/h 82 % 0.0 mm 366 W/m2
10:05 10.4 °C 7.1 °C 1026.3 hPa East 11.3 km/h 12.9 km/h 80 % 0.0 mm 381 W/m2
10:10 10.6 °C 6.9 °C 1026.3 hPa East 3.2 km/h 16.1 km/h 78 % 0.0 mm 397 W/m2
10:15 10.5 °C 6.4 °C 1026.3 hPa East 8.0 km/h 20.9 km/h 76 % 0.0 mm 411 W/m2
10:20 10.6 °C 6.5 °C 1026.3 hPa ENE 3.2 km/h 20.9 km/h 76 % 0.0 mm 425 W/m2
10:25 10.8 °C 7.0 °C 1026.3 hPa ENE 4.8 km/h 17.7 km/h 77 % 0.0 mm 439 W/m2
10:30 11.2 °C 7.1 °C 1026.3 hPa East 9.7 km/h 17.7 km/h 76 % 0.0 mm 457 W/m2
10:35 11.4 °C 7.0 °C 1026.3 hPa ENE 4.8 km/h 17.7 km/h 74 % 0.0 mm 469 W/m2
10:40 11.8 °C 7.1 °C 1026.0 hPa ENE 8.0 km/h 14.5 km/h 73 % 0.0 mm 482 W/m2
10:45 11.9 °C 7.3 °C 1026.0 hPa NE 9.7 km/h 16.1 km/h 73 % 0.0 mm 494 W/m2
10:50 12.3 °C 7.4 °C 1026.3 hPa ESE 9.7 km/h 16.1 km/h 72 % 0.0 mm 510 W/m2
10:55 12.3 °C 7.0 °C 1026.0 hPa ENE 4.8 km/h 20.9 km/h 70 % 0.0 mm 526 W/m2
11:00 12.6 °C 6.9 °C 1026.0 hPa SE 6.4 km/h 20.9 km/h 68 % 0.0 mm 536 W/m2
11:05 12.7 °C 6.9 °C 1026.0 hPa East 9.7 km/h 20.9 km/h 68 % 0.0 mm 550 W/m2
11:10 12.9 °C 7.0 °C 1026.0 hPa ENE 11.3 km/h 20.9 km/h 67 % 0.0 mm 566 W/m2
11:15 13.2 °C 7.2 °C 1026.0 hPa SE 6.4 km/h 20.9 km/h 67 % 0.0 mm 575 W/m2
11:20 13.3 °C 7.5 °C 1026.0 hPa NNE 6.4 km/h 20.9 km/h 68 % 0.0 mm 580 W/m2
11:25 13.4 °C 7.2 °C 1026.0 hPa East 8.0 km/h 20.9 km/h 66 % 0.0 mm 598 W/m2
11:30 13.7 °C 7.6 °C 1026.0 hPa East 16.1 km/h 20.9 km/h 67 % 0.0 mm 608 W/m2
11:35 13.6 °C 7.3 °C 1026.0 hPa East 16.1 km/h 22.5 km/h 66 % 0.0 mm 621 W/m2
11:40 13.7 °C 7.4 °C 1026.0 hPa ENE 14.5 km/h 22.5 km/h 66 % 0.0 mm 629 W/m2
11:45 13.6 °C 7.2 °C 1026.0 hPa East 8.0 km/h 27.4 km/h 65 % 0.0 mm 635 W/m2
11:50 13.8 °C 7.6 °C 1026.0 hPa ENE 14.5 km/h 27.4 km/h 66 % 0.0 mm 650 W/m2
11:55 14.1 °C 7.1 °C 1026.0 hPa NE 20.9 km/h 24.1 km/h 63 % 0.0 mm 659 W/m2
12:00 13.9 °C 7.0 °C 1026.0 hPa ESE 17.7 km/h 29.0 km/h 63 % 0.0 mm 668 W/m2
12:05 13.9 °C 7.0 °C 1025.6 hPa East 8.0 km/h 29.0 km/h 63 % 0.0 mm 680 W/m2
12:10 14.6 °C 8.0 °C 1026.0 hPa ESE 11.3 km/h 22.5 km/h 65 % 0.0 mm 689 W/m2
12:15 14.8 °C 7.4 °C 1025.6 hPa ENE 17.7 km/h 24.1 km/h 61 % 0.0 mm 698 W/m2
12:20 14.7 °C 7.9 °C 1025.6 hPa NE 12.9 km/h 25.7 km/h 64 % 0.0 mm 703 W/m2
12:25 14.6 °C 7.6 °C 1025.6 hPa East 3.2 km/h 25.7 km/h 63 % 0.0 mm 714 W/m2
12:30 14.8 °C 7.6 °C 1025.6 hPa ENE 16.1 km/h 24.1 km/h 62 % 0.0 mm 717 W/m2
12:35 15.2 °C 8.7 °C 1025.6 hPa NNE 16.1 km/h 22.5 km/h 65 % 0.0 mm 721 W/m2
12:40 15.0 °C 7.0 °C 1025.6 hPa ESE 8.0 km/h 24.1 km/h 59 % 0.0 mm 735 W/m2
12:45 15.1 °C 8.1 °C 1025.6 hPa ESE 11.3 km/h 24.1 km/h 63 % 0.0 mm 744 W/m2
12:50 15.2 °C 7.7 °C 1025.6 hPa ENE 1.6 km/h 25.7 km/h 61 % 0.0 mm 742 W/m2
12:55 15.6 °C 8.4 °C 1025.6 hPa ESE 8.0 km/h 25.7 km/h 62 % 0.0 mm 749 W/m2
13:00 15.6 °C 8.1 °C 1025.6 hPa ENE 8.0 km/h 24.1 km/h 61 % 0.0 mm 756 W/m2
13:05 15.3 °C 7.1 °C 1025.3 hPa ESE 11.3 km/h 27.4 km/h 58 % 0.0 mm 761 W/m2
13:10 15.8 °C 8.0 °C 1025.3 hPa East 14.5 km/h 27.4 km/h 60 % 0.0 mm 761 W/m2
13:15 15.5 °C 7.3 °C 1025.3 hPa ENE 11.3 km/h 25.7 km/h 58 % 0.0 mm 766 W/m2
13:20 15.8 °C 8.3 °C 1025.3 hPa East 11.3 km/h 25.7 km/h 61 % 0.0 mm 766 W/m2
13:25 15.9 °C 8.1 °C 1025.3 hPa East 11.3 km/h 24.1 km/h 60 % 0.0 mm 777 W/m2
13:30 15.9 °C 7.9 °C 1025.3 hPa East 8.0 km/h 24.1 km/h 59 % 0.0 mm 777 W/m2
13:35 16.3 °C 7.8 °C 1025.3 hPa East 14.5 km/h 24.1 km/h 57 % 0.0 mm 779 W/m2
13:40 16.3 °C 8.3 °C 1025.3 hPa East 4.8 km/h 25.7 km/h 59 % 0.0 mm 784 W/m2
13:45 16.6 °C 8.8 °C 1024.9 hPa East 8.0 km/h 25.7 km/h 60 % 0.0 mm 784 W/m2
13:50 16.6 °C 7.5 °C 1024.9 hPa NE 8.0 km/h 25.7 km/h 55 % 0.0 mm 782 W/m2
13:55 16.7 °C 8.7 °C 1024.9 hPa East 3.2 km/h 25.7 km/h 59 % 0.0 mm 784 W/m2
14:00 17.2 °C 8.1 °C 1024.9 hPa ESE 8.0 km/h 17.7 km/h 55 % 0.0 mm 789 W/m2
14:05 16.9 °C 8.6 °C 1024.9 hPa NE 8.0 km/h 22.5 km/h 58 % 0.0 mm 786 W/m2
14:10 16.9 °C 8.8 °C 1024.9 hPa NE 11.3 km/h 22.5 km/h 59 % 0.0 mm 784 W/m2
14:15 17.2 °C 8.8 °C 1024.9 hPa NE 11.3 km/h 22.5 km/h 58 % 0.0 mm 779 W/m2
14:20 17.3 °C 9.2 °C 1024.9 hPa NE 8.0 km/h 22.5 km/h 59 % 0.0 mm 784 W/m2
14:25 17.2 °C 8.8 °C 1024.6 hPa ENE 8.0 km/h 20.9 km/h 58 % 0.0 mm 782 W/m2
14:30 17.2 °C 8.6 °C 1024.6 hPa NE 9.7 km/h 20.9 km/h 57 % 0.0 mm 782 W/m2
14:35 17.3 °C 8.4 °C 1024.6 hPa ENE 6.4 km/h 20.9 km/h 56 % 0.0 mm 779 W/m2
14:40 17.6 °C 9.2 °C 1024.6 hPa East 9.7 km/h 20.9 km/h 58 % 0.0 mm 766 W/m2
14:45 18.0 °C 9.1 °C 1024.6 hPa East 4.8 km/h 20.9 km/h 56 % 0.0 mm 768 W/m2
14:50 17.8 °C 9.2 °C 1024.6 hPa NE 19.3 km/h 22.5 km/h 57 % 0.0 mm 766 W/m2
14:55 17.7 °C 8.2 °C 1024.3 hPa East 12.9 km/h 30.6 km/h 54 % 0.0 mm 761 W/m2
15:00 18.3 °C 9.6 °C 1024.3 hPa NE 6.4 km/h 30.6 km/h 57 % 0.0 mm 763 W/m2
15:05 18.1 °C 8.3 °C 1024.3 hPa East 9.7 km/h 22.5 km/h 53 % 0.0 mm 758 W/m2
15:10 18.1 °C 8.3 °C 1024.3 hPa ENE 17.7 km/h 22.5 km/h 53 % 0.0 mm 749 W/m2
15:15 17.9 °C 8.8 °C 1024.3 hPa ENE 11.3 km/h 22.5 km/h 55 % 0.0 mm 744 W/m2
15:20 18.3 °C 9.4 °C 1024.3 hPa East 9.7 km/h 22.5 km/h 56 % 0.0 mm 738 W/m2
15:25 18.4 °C 9.0 °C 1024.3 hPa NE 1.6 km/h 20.9 km/h 54 % 0.0 mm 735 W/m2
15:30 18.3 °C 8.6 °C 1024.3 hPa East 8.0 km/h 20.9 km/h 53 % 0.0 mm 721 W/m2
15:35 18.2 °C 9.2 °C 1024.3 hPa SE 12.9 km/h 19.3 km/h 56 % 0.0 mm 721 W/m2
15:40 18.4 °C 8.4 °C 1024.3 hPa ENE 8.0 km/h 20.9 km/h 52 % 0.0 mm 715 W/m2
15:45 18.3 °C 8.8 °C 1024.3 hPa ENE 6.4 km/h 20.9 km/h 54 % 0.0 mm 701 W/m2
15:50 18.5 °C 8.5 °C 1023.9 hPa NE 1.6 km/h 17.7 km/h 52 % 0.0 mm 700 W/m2
15:55 18.7 °C 8.9 °C 1023.9 hPa ENE 14.5 km/h 20.9 km/h 53 % 0.0 mm 686 W/m2
16:00 18.8 °C 9.0 °C 1023.9 hPa ENE 11.3 km/h 20.9 km/h 53 % 0.0 mm 682 W/m2
16:05 18.8 °C 9.0 °C 1023.9 hPa ESE 4.8 km/h 17.7 km/h 53 % 0.0 mm 671 W/m2
16:10 18.8 °C 8.8 °C 1023.9 hPa ENE 14.5 km/h 19.3 km/h 52 % 0.0 mm 661 W/m2
16:15 18.7 °C 8.9 °C 1023.9 hPa East 9.7 km/h 22.5 km/h 53 % 0.0 mm 652 W/m2
16:20 18.7 °C 9.5 °C 1023.6 hPa ENE 8.0 km/h 22.5 km/h 55 % 0.0 mm 647 W/m2
16:25 18.9 °C 9.6 °C 1023.6 hPa NE 11.3 km/h 16.1 km/h 55 % 0.0 mm 635 W/m2
16:30 19.0 °C 8.9 °C 1023.6 hPa ENE 6.4 km/h 22.5 km/h 52 % 0.0 mm 624 W/m2
16:35 18.8 °C 9.0 °C 1023.6 hPa East 8.0 km/h 22.5 km/h 53 % 0.0 mm 615 W/m2
16:40 18.8 °C 8.5 °C 1023.6 hPa ENE 11.3 km/h 22.5 km/h 51 % 0.0 mm 603 W/m2
16:45 18.9 °C 9.1 °C 1023.2 hPa ENE 1.6 km/h 22.5 km/h 53 % 0.0 mm 591 W/m2
16:50 19.2 °C 8.8 °C 1023.2 hPa NE 3.2 km/h 19.3 km/h 51 % 0.0 mm 584 W/m2
16:55 19.2 °C 8.5 °C 1023.2 hPa ENE 4.8 km/h 19.3 km/h 50 % 0.0 mm 573 W/m2
17:00 18.8 °C 8.2 °C 1023.2 hPa East 9.7 km/h 22.5 km/h 50 % 0.0 mm 561 W/m2
17:05 19.1 °C 9.3 °C 1023.2 hPa ENE 12.9 km/h 22.5 km/h 53 % 0.0 mm 548 W/m2
17:10 19.1 °C 8.4 °C 1023.2 hPa East 12.9 km/h 20.9 km/h 50 % 0.0 mm 536 W/m2
17:15 18.9 °C 8.5 °C 1022.9 hPa ENE 11.3 km/h 22.5 km/h 51 % 0.0 mm 524 W/m2
17:20 18.9 °C 8.9 °C 1022.9 hPa Calm   22.5 km/h 52 % 0.0 mm 508 W/m2
17:25 19.1 °C 9.0 °C 1022.9 hPa ENE 11.3 km/h 19.3 km/h 52 % 0.0 mm 496 W/m2
17:30 19.0 °C 8.9 °C 1022.9 hPa ESE 11.3 km/h 19.3 km/h 52 % 0.0 mm 489 W/m2
17:35 19.0 °C 8.6 °C 1022.9 hPa East 11.3 km/h 20.9 km/h 51 % 0.0 mm 360 W/m2
17:40 19.1 °C 9.3 °C 1022.9 hPa ESE 14.5 km/h 20.9 km/h 53 % 0.0 mm 455 W/m2
17:45 18.8 °C 9.6 °C 1022.9 hPa East 9.7 km/h 16.1 km/h 55 % 0.0 mm 406 W/m2
17:50 18.8 °C 8.7 °C 1022.9 hPa East 12.9 km/h 19.3 km/h 52 % 0.0 mm 410 W/m2
17:55 18.8 °C 8.7 °C 1022.9 hPa East 14.5 km/h 19.3 km/h 52 % 0.0 mm 413 W/m2
18:00 18.7 °C 9.5 °C 1022.9 hPa ENE 6.4 km/h 19.3 km/h 55 % 0.0 mm 202 W/m2
18:05 18.8 °C 9.0 °C 1022.9 hPa East 4.8 km/h 16.1 km/h 53 % 0.0 mm 179 W/m2
18:10 18.7 °C 8.9 °C 1022.9 hPa ESE 11.3 km/h 19.3 km/h 53 % 0.0 mm 369 W/m2
18:15 18.7 °C 8.7 °C 1022.6 hPa NE 4.8 km/h 19.3 km/h 52 % 0.0 mm 359 W/m2
18:20 18.7 °C 8.4 °C 1022.9 hPa ESE 1.6 km/h 16.1 km/h 51 % 0.0 mm 341 W/m2
18:25 18.7 °C 8.7 °C 1022.6 hPa Calm   17.7 km/h 52 % 0.0 mm 327 W/m2
18:30 18.8 °C 9.3 °C 1022.6 hPa ENE 8.0 km/h 17.7 km/h 54 % 0.0 mm 313 W/m2
18:35 18.8 °C 9.0 °C 1022.6 hPa ESE 9.7 km/h 17.7 km/h 53 % 0.0 mm 297 W/m2
18:40 18.8 °C 9.3 °C 1022.6 hPa ENE 4.8 km/h 17.7 km/h 54 % 0.0 mm 281 W/m2
18:45 18.8 °C 9.5 °C 1022.6 hPa East 11.3 km/h 16.1 km/h 55 % 0.0 mm 269 W/m2
18:50 18.8 °C 9.3 °C 1022.6 hPa East 6.4 km/h 16.1 km/h 54 % 0.0 mm 171 W/m2
18:55 18.7 °C 9.4 °C 1022.6 hPa East 4.8 km/h 17.7 km/h 55 % 0.0 mm 56 W/m2
19:00 18.6 °C 9.1 °C 1022.6 hPa ENE 11.3 km/h 17.7 km/h 54 % 0.0 mm 53 W/m2
19:05 18.4 °C 9.2 °C 1022.6 hPa East 9.7 km/h 14.5 km/h 55 % 0.0 mm 51 W/m2
19:10 18.4 °C 9.2 °C 1022.6 hPa East 12.9 km/h 16.1 km/h 55 % 0.0 mm 49 W/m2
19:15 18.2 °C 9.5 °C 1022.6 hPa ENE 3.2 km/h 16.1 km/h 57 % 0.0 mm 51 W/m2
19:20 17.9 °C 9.2 °C 1022.6 hPa ENE 6.4 km/h 17.7 km/h 57 % 0.0 mm 47 W/m2
19:25 17.7 °C 9.3 °C 1022.6 hPa ENE 14.5 km/h 17.7 km/h 58 % 0.0 mm 67 W/m2
19:30 17.7 °C 9.3 °C 1022.6 hPa NE 1.6 km/h 16.1 km/h 58 % 0.0 mm 46 W/m2
19:35 17.7 °C 9.3 °C 1022.6 hPa East 8.0 km/h 16.1 km/h 58 % 0.0 mm 49 W/m2
19:40 17.6 °C 9.4 °C 1022.6 hPa ESE 4.8 km/h 12.9 km/h 59 % 0.0 mm 39 W/m2
19:45 17.3 °C 9.5 °C 1022.6 hPa East 11.3 km/h 12.9 km/h 60 % 0.0 mm 37 W/m2
19:50 17.3 °C 9.7 °C 1022.6 hPa NNE 8.0 km/h 14.5 km/h 61 % 0.0 mm 33 W/m2
19:55 17.2 °C 9.6 °C 1022.6 hPa ENE 8.0 km/h 17.7 km/h 61 % 0.0 mm 33 W/m2
20:00 17.0 °C 9.7 °C 1022.6 hPa East 3.2 km/h 17.7 km/h 62 % 0.0 mm 28 W/m2
20:05 16.8 °C 9.5 °C 1022.6 hPa NE 8.0 km/h 12.9 km/h 62 % 0.0 mm 26 W/m2
20:10 16.7 °C 9.6 °C 1022.6 hPa East 4.8 km/h 12.9 km/h 63 % 0.0 mm 25 W/m2
20:15 16.3 °C 9.7 °C 1022.6 hPa East 3.2 km/h 11.3 km/h 65 % 0.0 mm 21 W/m2
20:20 15.9 °C 9.6 °C 1022.6 hPa East 3.2 km/h 8.0 km/h 66 % 0.0 mm 18 W/m2
20:25 15.8 °C 9.7 °C 1022.6 hPa ENE 3.2 km/h 12.9 km/h 67 % 0.0 mm 16 W/m2
20:30 15.5 °C 9.6 °C 1022.6 hPa Calm   12.9 km/h 68 % 0.0 mm 12 W/m2
20:35 15.2 °C 9.6 °C 1022.6 hPa ENE 1.6 km/h 11.3 km/h 69 % 0.0 mm 9 W/m2
20:40 14.9 °C 9.5 °C 1022.6 hPa NE 3.2 km/h 11.3 km/h 70 % 0.0 mm 7 W/m2
20:45 14.6 °C 9.4 °C 1022.6 hPa Calm   11.3 km/h 71 % 0.0 mm 5 W/m2
20:50 14.5 °C 9.5 °C 1022.6 hPa ENE 1.6 km/h 8.0 km/h 72 % 0.0 mm 0 W/m2
20:55 14.3 °C 9.3 °C 1022.6 hPa NE 4.8 km/h 8.0 km/h 72 % 0.0 mm 0 W/m2
21:00 13.9 °C 9.3 °C 1022.6 hPa Calm   6.4 km/h 74 % 0.0 mm 0 W/m2
21:05 13.7 °C 9.2 °C 1022.6 hPa East 1.6 km/h 8.0 km/h 74 % 0.0 mm 0 W/m2
21:10 13.7 °C 9.3 °C 1022.6 hPa NE 1.6 km/h 8.0 km/h 75 % 0.0 mm 0 W/m2
21:15 13.5 °C 9.2 °C 1022.6 hPa NE 3.2 km/h 6.4 km/h 75 % 0.0 mm 0 W/m2
21:20 13.3 °C 9.1 °C 1022.6 hPa ENE 3.2 km/h 6.4 km/h 76 % 0.0 mm 0 W/m2
21:25 13.3 °C 9.3 °C 1022.6 hPa ENE 4.8 km/h 8.0 km/h 77 % 0.0 mm 0 W/m2
21:30 13.5 °C 9.4 °C 1022.6 hPa ENE 3.2 km/h 8.0 km/h 76 % 0.0 mm 0 W/m2
21:35 13.4 °C 9.2 °C 1022.6 hPa ENE 3.2 km/h 8.0 km/h 76 % 0.0 mm 0 W/m2
21:40 13.4 °C 9.2 °C 1022.6 hPa NE 3.2 km/h 9.7 km/h 76 % 0.0 mm 0 W/m2
21:45 13.3 °C 9.2 °C 1022.9 hPa East 8.0 km/h 11.3 km/h 76 % 0.0 mm 0 W/m2
21:50 13.4 °C 9.2 °C 1022.9 hPa East 1.6 km/h 11.3 km/h 76 % 0.0 mm 0 W/m2
21:55 13.2 °C 9.1 °C 1022.9 hPa East 4.8 km/h 9.7 km/h 76 % 0.0 mm 0 W/m2
22:00 13.2 °C 9.1 °C 1022.9 hPa Calm   11.3 km/h 76 % 0.0 mm 0 W/m2
22:10 13.1 °C 9.0 °C 1022.9 hPa ENE 3.2 km/h 8.0 km/h 76 % 0.0 mm 0 W/m2
22:15 13.2 °C 9.1 °C 1022.9 hPa ENE 4.8 km/h 9.7 km/h 76 % 0.0 mm 0 W/m2
22:20 13.1 °C 8.8 °C 1022.9 hPa ENE 3.2 km/h 9.7 km/h 75 % 0.0 mm 0 W/m2
22:25 13.1 °C 8.9 °C 1022.9 hPa East 1.6 km/h 8.0 km/h 76 % 0.0 mm 0 W/m2
22:30 13.0 °C 8.9 °C 1022.9 hPa ENE 3.2 km/h 9.7 km/h 76 % 0.0 mm 0 W/m2
22:35 12.7 °C 8.8 °C 1022.9 hPa ENE 4.8 km/h 9.7 km/h 77 % 0.0 mm 0 W/m2
22:40 12.7 °C 8.7 °C 1022.9 hPa ENE 3.2 km/h 8.0 km/h 77 % 0.0 mm 0 W/m2
22:45 12.7 °C 8.7 °C 1022.9 hPa East 4.8 km/h 8.0 km/h 77 % 0.0 mm 0 W/m2
22:50 12.5 °C 8.8 °C 1022.9 hPa ENE 6.4 km/h 11.3 km/h 78 % 0.0 mm 0 W/m2
22:55 12.3 °C 8.6 °C 1022.9 hPa ENE 3.2 km/h 11.3 km/h 78 % 0.0 mm 0 W/m2
23:00 12.0 °C 8.5 °C 1022.9 hPa Calm   8.0 km/h 79 % 0.0 mm 0 W/m2
23:05 12.0 °C 8.7 °C 1022.9 hPa ENE 3.2 km/h 6.4 km/h 80 % 0.0 mm 0 W/m2
23:10 11.8 °C 8.5 °C 1022.9 hPa East 3.2 km/h 6.4 km/h 80 % 0.0 mm 0 W/m2
23:15 11.8 °C 8.4 °C 1022.9 hPa ENE 3.2 km/h 9.7 km/h 80 % 0.0 mm 0 W/m2
23:20 11.7 °C 8.5 °C 1022.9 hPa ENE 1.6 km/h 9.7 km/h 81 % 0.0 mm 0 W/m2
23:25 11.5 °C 8.4 °C 1022.9 hPa East 4.8 km/h 8.0 km/h 81 % 0.0 mm 0 W/m2
23:30 11.3 °C 8.3 °C 1022.9 hPa ENE 1.6 km/h 8.0 km/h 82 % 0.0 mm 0 W/m2
23:35 11.1 °C 8.3 °C 1022.9 hPa NE 3.2 km/h 8.0 km/h 83 % 0.0 mm 0 W/m2
23:40 10.8 °C 8.0 °C 1022.9 hPa ENE 1.6 km/h 8.0 km/h 83 % 0.0 mm 0 W/m2
23:45 10.7 °C 8.1 °C 1022.6 hPa ENE 6.4 km/h 8.0 km/h 84 % 0.0 mm 0 W/m2
23:50 10.7 °C 8.1 °C 1022.6 hPa ENE 3.2 km/h 8.0 km/h 84 % 0.0 mm 0 W/m2
23:55 10.9 °C 8.3 °C 1022.6 hPa East 4.8 km/h 9.7 km/h 84 % 0.0 mm 0 W/m2
Avec l'autorisation de Weather Underground - 1.75 mb